sensor_id;sensor_type;location;lat;lon;timestamp;pressure;altitude;pressure_sealevel;temperature;humidity
11114;BME280;5610;52.154;9.198;2023-05-09T00:00:31;101071.31;;;14.32;100.00
11114;BME280;5610;52.154;9.198;2023-05-09T00:03:17;101065.00;;;14.33;100.00
11114;BME280;5610;52.154;9.198;2023-05-09T00:06:03;101070.53;;;14.30;100.00
11114;BME280;5610;52.154;9.198;2023-05-09T00:08:48;101061.22;;;14.23;100.00
11114;BME280;5610;52.154;9.198;2023-05-09T00:11:33;101060.59;;;14.19;100.00
11114;BME280;5610;52.154;9.198;2023-05-09T00:14:18;101063.47;;;14.16;100.00
11114;BME280;5610;52.154;9.198;2023-05-09T00:17:04;101064.97;;;14.08;100.00
11114;BME280;5610;52.154;9.198;2023-05-09T00:19:50;101057.59;;;14.11;100.00
11114;BME280;5610;52.154;9.198;2023-05-09T00:22:37;101059.50;;;14.09;100.00
11114;BME280;5610;52.154;9.198;2023-05-09T00:25:23;101047.31;;;14.05;100.00
11114;BME280;5610;52.154;9.198;2023-05-09T00:28:08;101052.13;;;14.13;100.00
11114;BME280;5610;52.154;9.198;2023-05-09T00:30:54;101057.25;;;14.16;100.00
11114;BME280;5610;52.154;9.198;2023-05-09T00:33:39;101058.03;;;14.18;100.00
11114;BME280;5610;52.154;9.198;2023-05-09T00:36:26;101047.84;;;14.10;100.00
11114;BME280;5610;52.154;9.198;2023-05-09T00:39:11;101041.84;;;14.07;100.00
11114;BME280;5610;52.154;9.198;2023-05-09T00:41:57;101046.88;;;13.98;100.00
11114;BME280;5610;52.154;9.198;2023-05-09T00:44:42;101036.16;;;13.98;100.00
11114;BME280;5610;52.154;9.198;2023-05-09T00:47:27;101030.16;;;13.82;100.00
11114;BME280;5610;52.154;9.198;2023-05-09T00:50:13;101031.44;;;13.89;100.00
11114;BME280;5610;52.154;9.198;2023-05-09T00:53:00;101032.59;;;13.85;99.14
11114;BME280;5610;52.154;9.198;2023-05-09T00:55:47;101027.34;;;13.84;100.00
11114;BME280;5610;52.154;9.198;2023-05-09T00:58:32;101021.88;;;13.72;99.56
11114;BME280;5610;52.154;9.198;2023-05-09T01:01:17;101021.56;;;13.77;99.23
11114;BME280;5610;52.154;9.198;2023-05-09T01:04:03;101021.34;;;13.80;98.72
11114;BME280;5610;52.154;9.198;2023-05-09T01:06:54;101008.59;;;13.71;100.00
11114;BME280;5610;52.154;9.198;2023-05-09T01:09:49;101014.69;;;13.73;100.00
11114;BME280;5610;52.154;9.198;2023-05-09T01:12:39;101002.59;;;13.67;99.08
11114;BME280;5610;52.154;9.198;2023-05-09T01:15:31;101007.31;;;13.77;100.00
11114;BME280;5610;52.154;9.198;2023-05-09T01:18:21;101005.06;;;13.70;100.00
11114;BME280;5610;52.154;9.198;2023-05-09T01:21:10;101003.47;;;13.68;100.00
11114;BME280;5610;52.154;9.198;2023-05-09T01:24:33;101002.16;;;13.61;100.00
11114;BME280;5610;52.154;9.198;2023-05-09T01:27:36;101003.63;;;13.52;100.00
11114;BME280;5610;52.154;9.198;2023-05-09T01:30:30;101000.63;;;13.44;100.00
11114;BME280;5610;52.154;9.198;2023-05-09T01:33:17;100994.72;;;13.39;100.00
11114;BME280;5610;52.154;9.198;2023-05-09T01:36:05;100997.47;;;13.25;100.00
11114;BME280;5610;52.154;9.198;2023-05-09T01:38:53;100994.22;;;13.19;100.00
11114;BME280;5610;52.154;9.198;2023-05-09T01:41:38;100991.56;;;13.19;100.00
11114;BME280;5610;52.154;9.198;2023-05-09T01:44:24;100992.59;;;13.17;100.00
11114;BME280;5610;52.154;9.198;2023-05-09T01:47:12;100992.34;;;13.07;100.00
11114;BME280;5610;52.154;9.198;2023-05-09T01:50:00;100988.69;;;13.23;100.00
11114;BME280;5610;52.154;9.198;2023-05-09T01:52:48;100987.72;;;13.24;100.00
11114;BME280;5610;52.154;9.198;2023-05-09T01:55:35;100981.97;;;13.30;100.00
11114;BME280;5610;52.154;9.198;2023-05-09T01:58:22;100983.59;;;13.32;100.00
11114;BME280;5610;52.154;9.198;2023-05-09T02:01:10;100983.81;;;13.42;100.00
11114;BME280;5610;52.154;9.198;2023-05-09T02:03:58;100979.94;;;13.33;100.00
11114;BME280;5610;52.154;9.198;2023-05-09T02:06:45;100978.66;;;13.39;100.00
11114;BME280;5610;52.154;9.198;2023-05-09T02:09:33;100980.47;;;13.38;100.00
11114;BME280;5610;52.154;9.198;2023-05-09T02:12:18;100982.28;;;13.38;100.00
11114;BME280;5610;52.154;9.198;2023-05-09T02:15:05;100981.56;;;13.36;100.00
11114;BME280;5610;52.154;9.198;2023-05-09T02:17:50;100972.44;;;13.38;100.00
11114;BME280;5610;52.154;9.198;2023-05-09T02:20:37;100975.03;;;13.40;100.00
11114;BME280;5610;52.154;9.198;2023-05-09T02:23:22;100974.38;;;13.36;100.00
11114;BME280;5610;52.154;9.198;2023-05-09T02:26:08;100970.63;;;13.39;100.00
11114;BME280;5610;52.154;9.198;2023-05-09T02:28:54;100961.00;;;13.36;100.00
11114;BME280;5610;52.154;9.198;2023-05-09T02:31:41;100966.34;;;13.36;100.00
11114;BME280;5610;52.154;9.198;2023-05-09T02:34:27;100967.44;;;13.34;100.00
11114;BME280;5610;52.154;9.198;2023-05-09T02:37:15;100965.28;;;13.26;100.00
11114;BME280;5610;52.154;9.198;2023-05-09T02:40:00;100963.84;;;13.21;100.00
11114;BME280;5610;52.154;9.198;2023-05-09T02:42:47;100972.44;;;13.26;100.00
11114;BME280;5610;52.154;9.198;2023-05-09T02:45:32;100970.81;;;13.23;100.00
11114;BME280;5610;52.154;9.198;2023-05-09T02:48:19;100965.56;;;13.22;100.00
11114;BME280;5610;52.154;9.198;2023-05-09T02:51:05;100963.00;;;13.20;100.00
11114;BME280;5610;52.154;9.198;2023-05-09T02:53:51;100950.97;;;13.13;100.00
11114;BME280;5610;52.154;9.198;2023-05-09T02:56:37;100947.53;;;13.11;100.00
11114;BME280;5610;52.154;9.198;2023-05-09T02:59:22;100949.31;;;12.98;100.00
11114;BME280;5610;52.154;9.198;2023-05-09T03:02:07;100944.91;;;12.97;100.00
11114;BME280;5610;52.154;9.198;2023-05-09T03:04:52;100948.81;;;13.05;100.00
11114;BME280;5610;52.154;9.198;2023-05-09T03:07:38;100946.09;;;12.92;100.00
11114;BME280;5610;52.154;9.198;2023-05-09T03:10:25;100946.59;;;12.85;100.00
11114;BME280;5610;52.154;9.198;2023-05-09T03:13:10;100945.06;;;12.81;100.00
11114;BME280;5610;52.154;9.198;2023-05-09T03:15:56;100940.97;;;12.75;100.00
11114;BME280;5610;52.154;9.198;2023-05-09T03:18:41;100945.44;;;12.62;100.00
11114;BME280;5610;52.154;9.198;2023-05-09T03:21:26;100934.75;;;12.62;100.00
11114;BME280;5610;52.154;9.198;2023-05-09T03:24:12;100938.66;;;12.56;100.00
11114;BME280;5610;52.154;9.198;2023-05-09T03:26:59;100934.63;;;12.63;100.00
11114;BME280;5610;52.154;9.198;2023-05-09T03:29:45;100924.81;;;12.64;100.00
11114;BME280;5610;52.154;9.198;2023-05-09T03:32:32;100932.72;;;12.65;100.00
11114;BME280;5610;52.154;9.198;2023-05-09T03:35:18;100933.47;;;12.68;100.00
11114;BME280;5610;52.154;9.198;2023-05-09T03:38:03;100924.41;;;12.70;100.00
11114;BME280;5610;52.154;9.198;2023-05-09T03:40:48;100931.84;;;12.65;100.00
11114;BME280;5610;52.154;9.198;2023-05-09T03:43:36;100927.47;;;12.64;100.00
11114;BME280;5610;52.154;9.198;2023-05-09T03:46:21;100926.69;;;12.76;100.00
11114;BME280;5610;52.154;9.198;2023-05-09T03:49:07;100924.13;;;12.87;100.00
11114;BME280;5610;52.154;9.198;2023-05-09T03:51:53;100923.63;;;12.95;100.00
11114;BME280;5610;52.154;9.198;2023-05-09T03:54:38;100930.69;;;12.96;100.00
11114;BME280;5610;52.154;9.198;2023-05-09T03:57:24;100923.50;;;12.97;100.00
11114;BME280;5610;52.154;9.198;2023-05-09T04:00:14;100913.78;;;12.96;100.00
11114;BME280;5610;52.154;9.198;2023-05-09T04:03:07;100909.38;;;12.95;100.00
11114;BME280;5610;52.154;9.198;2023-05-09T04:05:57;100905.44;;;13.00;100.00
11114;BME280;5610;52.154;9.198;2023-05-09T04:08:55;100915.00;;;13.04;100.00
11114;BME280;5610;52.154;9.198;2023-05-09T04:11:41;100908.69;;;13.05;100.00
11114;BME280;5610;52.154;9.198;2023-05-09T04:14:29;100914.25;;;13.15;100.00
11114;BME280;5610;52.154;9.198;2023-05-09T04:17:15;100914.91;;;13.18;100.00
11114;BME280;5610;52.154;9.198;2023-05-09T04:20:01;100915.06;;;13.30;100.00
11114;BME280;5610;52.154;9.198;2023-05-09T04:22:46;100913.13;;;13.32;100.00
11114;BME280;5610;52.154;9.198;2023-05-09T04:25:33;100911.13;;;13.48;100.00
11114;BME280;5610;52.154;9.198;2023-05-09T04:28:20;100907.59;;;13.60;100.00
11114;BME280;5610;52.154;9.198;2023-05-09T04:31:06;100908.41;;;13.73;100.00
11114;BME280;5610;52.154;9.198;2023-05-09T04:33:53;100904.69;;;13.89;100.00
11114;BME280;5610;52.154;9.198;2023-05-09T04:36:39;100904.63;;;14.01;100.00
11114;BME280;5610;52.154;9.198;2023-05-09T04:39:25;100902.19;;;14.11;100.00
11114;BME280;5610;52.154;9.198;2023-05-09T04:42:18;100899.56;;;14.22;100.00
11114;BME280;5610;52.154;9.198;2023-05-09T04:45:04;100904.47;;;14.28;100.00
11114;BME280;5610;52.154;9.198;2023-05-09T04:47:50;100905.72;;;14.36;100.00
11114;BME280;5610;52.154;9.198;2023-05-09T04:50:36;100897.03;;;14.45;100.00
11114;BME280;5610;52.154;9.198;2023-05-09T04:53:22;100894.56;;;14.54;100.00
11114;BME280;5610;52.154;9.198;2023-05-09T04:56:07;100891.31;;;14.62;100.00
11114;BME280;5610;52.154;9.198;2023-05-09T04:58:53;100890.13;;;14.66;100.00
11114;BME280;5610;52.154;9.198;2023-05-09T05:01:38;100893.06;;;14.74;100.00
11114;BME280;5610;52.154;9.198;2023-05-09T05:04:24;100889.31;;;14.77;100.00
11114;BME280;5610;52.154;9.198;2023-05-09T05:07:11;100890.34;;;14.87;100.00
11114;BME280;5610;52.154;9.198;2023-05-09T05:09:56;100885.63;;;15.02;100.00
11114;BME280;5610;52.154;9.198;2023-05-09T05:12:42;100881.00;;;15.15;100.00
11114;BME280;5610;52.154;9.198;2023-05-09T05:15:30;100886.19;;;15.29;100.00
11114;BME280;5610;52.154;9.198;2023-05-09T05:18:16;100881.69;;;15.41;100.00
11114;BME280;5610;52.154;9.198;2023-05-09T05:21:01;100878.16;;;15.41;98.97
11114;BME280;5610;52.154;9.198;2023-05-09T05:23:48;100875.59;;;15.50;95.30
11114;BME280;5610;52.154;9.198;2023-05-09T05:26:33;100870.50;;;15.58;100.00
11114;BME280;5610;52.154;9.198;2023-05-09T05:29:19;100866.13;;;15.69;100.00
11114;BME280;5610;52.154;9.198;2023-05-09T05:32:04;100855.47;;;15.78;100.00
11114;BME280;5610;52.154;9.198;2023-05-09T05:34:49;100852.06;;;15.87;100.00
11114;BME280;5610;52.154;9.198;2023-05-09T05:37:35;100863.06;;;15.96;100.00
11114;BME280;5610;52.154;9.198;2023-05-09T05:40:21;100848.16;;;16.03;100.00
11114;BME280;5610;52.154;9.198;2023-05-09T05:43:08;100855.47;;;16.12;100.00
11114;BME280;5610;52.154;9.198;2023-05-09T05:45:55;100851.06;;;16.22;100.00
11114;BME280;5610;52.154;9.198;2023-05-09T05:48:41;100849.66;;;16.28;97.76
11114;BME280;5610;52.154;9.198;2023-05-09T05:51:26;100847.22;;;16.36;98.54
11114;BME280;5610;52.154;9.198;2023-05-09T05:54:12;100846.19;;;16.48;98.55
11114;BME280;5610;52.154;9.198;2023-05-09T05:56:59;100846.03;;;16.61;100.00
11114;BME280;5610;52.154;9.198;2023-05-09T05:59:45;100843.53;;;16.69;98.20
11114;BME280;5610;52.154;9.198;2023-05-09T06:02:31;100846.25;;;16.80;97.44
11114;BME280;5610;52.154;9.198;2023-05-09T06:05:17;100850.97;;;16.88;95.13
11114;BME280;5610;52.154;9.198;2023-05-09T06:08:03;100843.81;;;16.98;95.90
11114;BME280;5610;52.154;9.198;2023-05-09T06:10:49;100835.97;;;17.06;96.30
11114;BME280;5610;52.154;9.198;2023-05-09T06:13:36;100845.22;;;17.13;93.87
11114;BME280;5610;52.154;9.198;2023-05-09T06:16:23;100846.25;;;17.22;90.45
11114;BME280;5610;52.154;9.198;2023-05-09T06:19:08;100844.31;;;17.34;91.59
11114;BME280;5610;52.154;9.198;2023-05-09T06:21:53;100828.75;;;17.37;87.73
11114;BME280;5610;52.154;9.198;2023-05-09T06:24:39;100822.72;;;17.54;91.41
11114;BME280;5610;52.154;9.198;2023-05-09T06:27:24;100825.03;;;17.59;88.84
11114;BME280;5610;52.154;9.198;2023-05-09T06:30:12;100818.13;;;17.66;89.90
11114;BME280;5610;52.154;9.198;2023-05-09T06:32:57;100814.28;;;17.69;92.41
11114;BME280;5610;52.154;9.198;2023-05-09T06:35:43;100814.41;;;17.57;89.15
11114;BME280;5610;52.154;9.198;2023-05-09T06:38:28;100803.28;;;17.41;88.24
11114;BME280;5610;52.154;9.198;2023-05-09T06:41:13;100802.75;;;17.26;89.73
11114;BME280;5610;52.154;9.198;2023-05-09T06:43:59;100800.69;;;17.40;91.71
11114;BME280;5610;52.154;9.198;2023-05-09T06:46:46;100805.28;;;17.49;89.64
11114;BME280;5610;52.154;9.198;2023-05-09T06:49:31;100798.94;;;17.60;86.93
11114;BME280;5610;52.154;9.198;2023-05-09T06:52:16;100795.41;;;17.59;84.07
11114;BME280;5610;52.154;9.198;2023-05-09T06:55:05;100789.06;;;17.70;85.44
11114;BME280;5610;52.154;9.198;2023-05-09T06:57:51;100781.34;;;17.55;84.82
11114;BME280;5610;52.154;9.198;2023-05-09T07:00:37;100784.06;;;17.55;85.81
11114;BME280;5610;52.154;9.198;2023-05-09T07:03:24;100776.69;;;17.67;87.68
11114;BME280;5610;52.154;9.198;2023-05-09T07:06:09;100771.06;;;17.70;87.47
11114;BME280;5610;52.154;9.198;2023-05-09T07:08:54;100764.88;;;17.89;87.03
11114;BME280;5610;52.154;9.198;2023-05-09T07:11:39;100764.63;;;18.02;83.38
11114;BME280;5610;52.154;9.198;2023-05-09T07:14:24;100754.13;;;18.18;85.06
11114;BME280;5610;52.154;9.198;2023-05-09T07:17:09;100752.31;;;18.28;79.53
11114;BME280;5610;52.154;9.198;2023-05-09T07:19:56;100741.19;;;18.60;81.33
11114;BME280;5610;52.154;9.198;2023-05-09T07:22:41;100733.41;;;18.67;79.27
11114;BME280;5610;52.154;9.198;2023-05-09T07:25:26;100734.28;;;18.77;82.54
11114;BME280;5610;52.154;9.198;2023-05-09T07:28:11;100733.53;;;18.85;78.60
11114;BME280;5610;52.154;9.198;2023-05-09T07:30:57;100728.69;;;18.88;78.00
11114;BME280;5610;52.154;9.198;2023-05-09T07:33:42;100714.59;;;18.94;78.42
11114;BME280;5610;52.154;9.198;2023-05-09T07:36:28;100708.63;;;19.01;81.46
11114;BME280;5610;52.154;9.198;2023-05-09T07:39:14;100706.75;;;19.01;79.69
11114;BME280;5610;52.154;9.198;2023-05-09T07:41:59;100703.41;;;19.27;82.95
11114;BME280;5610;52.154;9.198;2023-05-09T07:44:45;100693.63;;;19.53;82.48
11114;BME280;5610;52.154;9.198;2023-05-09T07:47:30;100693.13;;;19.85;73.99
11114;BME280;5610;52.154;9.198;2023-05-09T07:50:15;100685.66;;;20.15;78.99
11114;BME280;5610;52.154;9.198;2023-05-09T07:53:02;100681.03;;;20.25;77.15
11114;BME280;5610;52.154;9.198;2023-05-09T07:55:47;100679.88;;;20.45;76.93
11114;BME280;5610;52.154;9.198;2023-05-09T07:58:33;100679.34;;;20.68;75.64
11114;BME280;5610;52.154;9.198;2023-05-09T08:01:18;100681.06;;;20.95;75.53
11114;BME280;5610;52.154;9.198;2023-05-09T08:04:04;100677.13;;;20.89;68.93
11114;BME280;5610;52.154;9.198;2023-05-09T08:06:51;100675.53;;;21.12;68.10
11114;BME280;5610;52.154;9.198;2023-05-09T08:09:38;100667.91;;;21.08;67.88
11114;BME280;5610;52.154;9.198;2023-05-09T08:12:23;100662.56;;;21.24;67.05
11114;BME280;5610;52.154;9.198;2023-05-09T08:15:09;100670.34;;;21.61;67.05
11114;BME280;5610;52.154;9.198;2023-05-09T08:17:54;100657.81;;;21.77;65.63
11114;BME280;5610;52.154;9.198;2023-05-09T08:20:39;100647.34;;;21.90;65.01
11114;BME280;5610;52.154;9.198;2023-05-09T08:23:25;100638.91;;;22.09;65.19
11114;BME280;5610;52.154;9.198;2023-05-09T08:26:11;100639.25;;;22.23;64.53
11114;BME280;5610;52.154;9.198;2023-05-09T08:28:57;100641.25;;;22.53;63.68
11114;BME280;5610;52.154;9.198;2023-05-09T08:31:42;100624.97;;;22.53;64.66
11114;BME280;5610;52.154;9.198;2023-05-09T08:34:27;100638.66;;;22.84;62.89
11114;BME280;5610;52.154;9.198;2023-05-09T08:37:14;100633.09;;;22.69;63.42
11114;BME280;5610;52.154;9.198;2023-05-09T08:39:59;100633.47;;;22.50;62.65
11114;BME280;5610;52.154;9.198;2023-05-09T08:42:47;100630.84;;;22.89;62.98
11114;BME280;5610;52.154;9.198;2023-05-09T08:45:34;100627.94;;;22.99;61.42
11114;BME280;5610;52.154;9.198;2023-05-09T08:48:24;100637.09;;;23.06;61.52
11114;BME280;5610;52.154;9.198;2023-05-09T08:51:10;100616.88;;;23.09;63.09
11114;BME280;5610;52.154;9.198;2023-05-09T08:53:55;100617.19;;;23.45;61.59
11114;BME280;5610;52.154;9.198;2023-05-09T08:56:41;100609.09;;;23.68;60.89
11114;BME280;5610;52.154;9.198;2023-05-09T08:59:28;100599.81;;;24.23;60.49
11114;BME280;5610;52.154;9.198;2023-05-09T09:02:16;100601.97;;;24.94;57.37
11114;BME280;5610;52.154;9.198;2023-05-09T09:05:02;100597.22;;;25.47;55.54
11114;BME280;5610;52.154;9.198;2023-05-09T09:07:48;100586.53;;;25.67;55.10
11114;BME280;5610;52.154;9.198;2023-05-09T09:10:34;100581.22;;;26.02;53.23
11114;BME280;5610;52.154;9.198;2023-05-09T09:13:19;100576.34;;;26.25;53.28
11114;BME280;5610;52.154;9.198;2023-05-09T09:16:08;100584.25;;;25.92;53.55
11114;BME280;5610;52.154;9.198;2023-05-09T09:18:54;100580.91;;;26.40;53.18
11114;BME280;5610;52.154;9.198;2023-05-09T09:21:40;100574.25;;;26.83;52.58
11114;BME280;5610;52.154;9.198;2023-05-09T09:24:26;100571.25;;;27.13;50.57
11114;BME280;5610;52.154;9.198;2023-05-09T09:27:12;100569.84;;;26.89;52.06
11114;BME280;5610;52.154;9.198;2023-05-09T09:30:05;100573.94;;;26.37;51.17
11114;BME280;5610;52.154;9.198;2023-05-09T09:32:52;100550.16;;;26.31;51.13
11114;BME280;5610;52.154;9.198;2023-05-09T09:35:37;100544.09;;;26.08;52.68
11114;BME280;5610;52.154;9.198;2023-05-09T09:38:23;100535.66;;;25.81;53.11
11114;BME280;5610;52.154;9.198;2023-05-09T09:41:11;100535.13;;;25.92;54.70
11114;BME280;5610;52.154;9.198;2023-05-09T09:43:57;100539.41;;;26.29;54.45
11114;BME280;5610;52.154;9.198;2023-05-09T09:46:46;100520.63;;;26.89;51.07
11114;BME280;5610;52.154;9.198;2023-05-09T09:49:33;100523.13;;;26.84;51.05
11114;BME280;5610;52.154;9.198;2023-05-09T09:52:22;100524.63;;;27.28;49.96
11114;BME280;5610;52.154;9.198;2023-05-09T09:55:08;100513.88;;;27.40;49.57
11114;BME280;5610;52.154;9.198;2023-05-09T09:57:53;100515.34;;;26.81;49.62
11114;BME280;5610;52.154;9.198;2023-05-09T10:00:39;100503.16;;;26.83;49.63
11114;BME280;5610;52.154;9.198;2023-05-09T10:03:24;100497.59;;;26.29;50.52
11114;BME280;5610;52.154;9.198;2023-05-09T10:06:12;100491.94;;;27.20;50.47
11114;BME280;5610;52.154;9.198;2023-05-09T10:08:57;100486.13;;;27.43;48.96
11114;BME280;5610;52.154;9.198;2023-05-09T10:11:42;100483.38;;;26.75;49.25
11114;BME280;5610;52.154;9.198;2023-05-09T10:14:30;100485.69;;;27.39;48.73
11114;BME280;5610;52.154;9.198;2023-05-09T10:17:15;100485.47;;;27.21;48.57
11114;BME280;5610;52.154;9.198;2023-05-09T10:20:03;100474.72;;;27.32;47.05
11114;BME280;5610;52.154;9.198;2023-05-09T10:22:53;100474.16;;;27.77;46.73
11114;BME280;5610;52.154;9.198;2023-05-09T10:25:45;100472.00;;;28.25;45.91
11114;BME280;5610;52.154;9.198;2023-05-09T10:28:32;100451.59;;;28.79;45.21
11114;BME280;5610;52.154;9.198;2023-05-09T10:31:22;100456.63;;;28.82;45.08
11114;BME280;5610;52.154;9.198;2023-05-09T10:34:10;100464.84;;;28.24;45.11
11114;BME280;5610;52.154;9.198;2023-05-09T10:36:57;100444.03;;;27.50;45.79
11114;BME280;5610;52.154;9.198;2023-05-09T10:39:45;100440.44;;;28.03;45.36
11114;BME280;5610;52.154;9.198;2023-05-09T10:42:30;100440.22;;;27.45;45.52
11114;BME280;5610;52.154;9.198;2023-05-09T10:45:16;100445.06;;;28.02;45.08
11114;BME280;5610;52.154;9.198;2023-05-09T10:48:03;100433.81;;;28.88;44.53
11114;BME280;5610;52.154;9.198;2023-05-09T10:50:51;100435.38;;;28.78;44.21
11114;BME280;5610;52.154;9.198;2023-05-09T10:53:40;100432.91;;;28.63;43.56
11114;BME280;5610;52.154;9.198;2023-05-09T10:56:30;100420.25;;;28.68;42.47
11114;BME280;5610;52.154;9.198;2023-05-09T10:59:32;100415.53;;;29.95;41.86
11114;BME280;5610;52.154;9.198;2023-05-09T11:02:19;100401.78;;;30.39;40.35
11114;BME280;5610;52.154;9.198;2023-05-09T11:05:15;100402.81;;;30.56;40.48
11114;BME280;5610;52.154;9.198;2023-05-09T11:08:24;100399.56;;;31.07;39.91
11114;BME280;5610;52.154;9.198;2023-05-09T11:11:21;100390.69;;;30.27;40.72
11114;BME280;5610;52.154;9.198;2023-05-09T11:14:27;100399.47;;;30.54;39.71
11114;BME280;5610;52.154;9.198;2023-05-09T11:17:14;100401.09;;;32.27;36.77
11114;BME280;5610;52.154;9.198;2023-05-09T11:20:10;100387.47;;;32.72;37.54
11114;BME280;5610;52.154;9.198;2023-05-09T11:22:56;100383.63;;;33.86;35.52
11114;BME280;5610;52.154;9.198;2023-05-09T11:25:41;100387.31;;;35.01;34.25
11114;BME280;5610;52.154;9.198;2023-05-09T11:28:30;100378.47;;;36.06;32.56
11114;BME280;5610;52.154;9.198;2023-05-09T11:31:18;100386.06;;;37.08;31.37
11114;BME280;5610;52.154;9.198;2023-05-09T11:34:04;100363.00;;;36.88;31.90
11114;BME280;5610;52.154;9.198;2023-05-09T11:36:49;100352.06;;;38.73;29.79
11114;BME280;5610;52.154;9.198;2023-05-09T11:39:35;100354.63;;;39.72;29.86
11114;BME280;5610;52.154;9.198;2023-05-09T11:42:41;100342.63;;;38.64;30.44
11114;BME280;5610;52.154;9.198;2023-05-09T11:45:29;100348.19;;;36.51;31.91
11114;BME280;5610;52.154;9.198;2023-05-09T11:48:20;100348.00;;;35.68;32.89
11114;BME280;5610;52.154;9.198;2023-05-09T11:51:07;100328.56;;;37.24;31.95
11114;BME280;5610;52.154;9.198;2023-05-09T11:54:00;100337.47;;;37.01;30.95
11114;BME280;5610;52.154;9.198;2023-05-09T11:56:45;100339.44;;;36.22;31.18
11114;BME280;5610;52.154;9.198;2023-05-09T11:59:32;100325.22;;;37.07;31.15
11114;BME280;5610;52.154;9.198;2023-05-09T12:02:17;100320.53;;;38.33;30.51
11114;BME280;5610;52.154;9.198;2023-05-09T12:05:07;100333.56;;;38.92;29.74
11114;BME280;5610;52.154;9.198;2023-05-09T12:07:54;100316.81;;;38.53;29.22
11114;BME280;5610;52.154;9.198;2023-05-09T12:10:40;100319.59;;;36.51;30.87
11114;BME280;5610;52.154;9.198;2023-05-09T12:13:25;100315.50;;;32.91;34.73
11114;BME280;5610;52.154;9.198;2023-05-09T12:16:10;100309.38;;;31.21;37.33
11114;BME280;5610;52.154;9.198;2023-05-09T12:18:55;100310.84;;;30.03;40.28
11114;BME280;5610;52.154;9.198;2023-05-09T12:21:42;100310.53;;;29.50;40.91
11114;BME280;5610;52.154;9.198;2023-05-09T12:24:28;100315.53;;;27.95;42.69
11114;BME280;5610;52.154;9.198;2023-05-09T12:27:14;100321.03;;;27.82;41.99
11114;BME280;5610;52.154;9.198;2023-05-09T12:30:00;100311.78;;;28.72;40.74
11114;BME280;5610;52.154;9.198;2023-05-09T12:32:46;100307.38;;;29.53;39.90
11114;BME280;5610;52.154;9.198;2023-05-09T12:35:32;100305.25;;;28.42;41.09
11114;BME280;5610;52.154;9.198;2023-05-09T12:38:20;100297.72;;;27.40;43.06
11114;BME280;5610;52.154;9.198;2023-05-09T12:41:07;100293.06;;;27.53;43.84
11114;BME280;5610;52.154;9.198;2023-05-09T12:43:53;100281.59;;;29.72;41.65
11114;BME280;5610;52.154;9.198;2023-05-09T12:46:38;100287.59;;;32.30;36.99
11114;BME280;5610;52.154;9.198;2023-05-09T12:49:24;100282.34;;;32.57;35.91
11114;BME280;5610;52.154;9.198;2023-05-09T12:52:16;100279.41;;;32.92;35.82
11114;BME280;5610;52.154;9.198;2023-05-09T12:55:06;100288.03;;;33.68;34.62
11114;BME280;5610;52.154;9.198;2023-05-09T12:57:59;100277.28;;;36.13;32.41
11114;BME280;5610;52.154;9.198;2023-05-09T13:00:45;100269.94;;;36.75;31.89
11114;BME280;5610;52.154;9.198;2023-05-09T13:03:31;100268.00;;;37.11;30.89
11114;BME280;5610;52.154;9.198;2023-05-09T13:06:20;100257.44;;;35.32;33.21
11114;BME280;5610;52.154;9.198;2023-05-09T13:09:06;100253.03;;;33.96;33.97
11114;BME280;5610;52.154;9.198;2023-05-09T13:11:57;100253.25;;;32.21;36.12
11114;BME280;5610;52.154;9.198;2023-05-09T13:14:42;100259.13;;;30.60;38.15
11114;BME280;5610;52.154;9.198;2023-05-09T13:17:27;100251.78;;;30.13;37.78
11114;BME280;5610;52.154;9.198;2023-05-09T13:20:12;100238.13;;;32.23;36.17
11114;BME280;5610;52.154;9.198;2023-05-09T13:22:58;100225.66;;;33.50;35.46
11114;BME280;5610;52.154;9.198;2023-05-09T13:25:43;100226.00;;;35.11;33.66
11114;BME280;5610;52.154;9.198;2023-05-09T13:28:30;100229.94;;;37.11;30.68
11114;BME280;5610;52.154;9.198;2023-05-09T13:31:16;100223.81;;;39.46;30.18
11114;BME280;5610;52.154;9.198;2023-05-09T13:34:01;100217.00;;;40.00;28.37
11114;BME280;5610;52.154;9.198;2023-05-09T13:36:46;100207.25;;;41.52;27.61
11114;BME280;5610;52.154;9.198;2023-05-09T13:39:32;100203.06;;;39.58;27.52
11114;BME280;5610;52.154;9.198;2023-05-09T13:42:17;100198.25;;;37.33;29.38
11114;BME280;5610;52.154;9.198;2023-05-09T13:45:04;100185.44;;;35.99;30.81
11114;BME280;5610;52.154;9.198;2023-05-09T13:47:50;100188.41;;;37.71;29.35
11114;BME280;5610;52.154;9.198;2023-05-09T13:50:35;100181.09;;;39.75;28.17
11114;BME280;5610;52.154;9.198;2023-05-09T13:53:20;100168.94;;;40.46;27.15
11114;BME280;5610;52.154;9.198;2023-05-09T13:56:06;100175.44;;;39.80;28.41
11114;BME280;5610;52.154;9.198;2023-05-09T13:58:51;100159.28;;;40.85;27.13
11114;BME280;5610;52.154;9.198;2023-05-09T14:01:38;100159.78;;;41.61;25.50
11114;BME280;5610;52.154;9.198;2023-05-09T14:04:23;100158.97;;;42.10;26.24
11114;BME280;5610;52.154;9.198;2023-05-09T14:07:09;100153.59;;;41.36;24.27
11114;BME280;5610;52.154;9.198;2023-05-09T14:09:55;100150.72;;;42.28;24.03
11114;BME280;5610;52.154;9.198;2023-05-09T14:12:41;100145.00;;;40.73;24.75
11114;BME280;5610;52.154;9.198;2023-05-09T14:15:27;100134.06;;;39.68;26.08
11114;BME280;5610;52.154;9.198;2023-05-09T14:18:14;100136.84;;;37.24;29.66
11114;BME280;5610;52.154;9.198;2023-05-09T14:21:00;100137.47;;;34.84;31.68
11114;BME280;5610;52.154;9.198;2023-05-09T14:23:45;100139.53;;;34.61;32.69
11114;BME280;5610;52.154;9.198;2023-05-09T14:26:32;100127.66;;;33.36;33.74
11114;BME280;5610;52.154;9.198;2023-05-09T14:29:17;100120.25;;;32.81;34.54
11114;BME280;5610;52.154;9.198;2023-05-09T14:32:03;100125.97;;;31.95;35.84
11114;BME280;5610;52.154;9.198;2023-05-09T14:34:51;100109.28;;;32.02;35.60
11114;BME280;5610;52.154;9.198;2023-05-09T14:37:36;100109.13;;;32.25;37.27
11114;BME280;5610;52.154;9.198;2023-05-09T14:40:21;100106.94;;;30.90;37.39